Liuting Airport
ZSQD : now visible

Airfield :











YOU CAN JOIN US ON...

 
LOGIN :

Register | Disclaimer

   EN    FR    IT 

 









Legend :    VFR   Marginal VFR   IFR   Intensive IFR   Very Intensive IFR
Visi :
Ceiling :
>= 8 km
>= 3000ft
5 to 8 km
1000 to 3000 ft
1500m to 5 km
500 to 1000 ft
800 to 1500m
200 to 500 ft
< 800m
< 200 ft
Symbols :   Thunderstorms  Fog  Heavy snow  Heavy precipitations  Wind > 20 kt






- Airport Elevation : 33 ft
- IATA code : TAO


ZSQD - Liuting

CURRENT METAR :
  • 250400Z 14005MPS 100V210 CAVOK 32/12 Q1011 NOSIG

EXPIRED METARs :
  • 250300Z 19004MPS CAVOK 31/13 Q1011 NOSIG
  • 250200Z VRB02MPS CAVOK 29/15 Q1012 NOSIG
  • 250100Z 20002MPS 160V270 CAVOK 28/16 Q1012 NOSIG
  • 250000Z 17003MPS 110V220 CAVOK 26/17 Q1012 NOSIG

TAF TAF ZSQD
Valid from the 25 at 00:00 until the 26 at 00:00 UTC


242101Z 2500/2524 18004MPS CAVOK TX32/2506Z TN18/2521Z
ZSHA FIR / Asia



MET'MAP, your aeronautical weather chart ! - Copyright ORBIFLY December 2007 - Disclaimer

ORBIFLY MET'MAP TEAM :

Programming & Development : Alexandra Zaïnal
Original concept : Baudouin d'Aumeries
Technical & hardware support : Manuel Goepfert
Assistance : Marc-Olivier Méhu




SOURCES & CREDITS :

   NOAA       Earth
Advisory